Kirishima Maru No.17 — JD3391 — position and weather

sailwx.info

Track history (hours):
 
Tides and Currents Weather Stations Pressure Air Temp Water Temp Dewpoint Dewpoint Depression Visibility Wind Speed Wind Dir Waves Ship Positions

Kirishima Maru No.17

Last reported at 2018-Jun-13 14:34 UTC. Time now 2018-Jun-19 18:00 UTC.
Position N 35°03' E 139°39'.

Length 91 m; draft 5.6 m.

Type: Tanker. MMSI: 431003736.

Date/timePositionNaut miles runAvg speedWind from/ knotsBaromVisibWave heightAir tempDewpointWater temp
2018-Jun-13 14:34N 35°03' E 139°39'213.6
2018-Jun-13 14:27N 35°04' E 139°41'614.0
2018-Jun-13 14:00N 35°10' E 139°45'713.1
2018-Jun-13 13:29N 35°16' E 139°46'612.9
2018-Jun-13 13:00N 35°22' E 139°42'612.3
2018-Jun-13 12:30N 35°27' E 139°47'713.2
2018-Jun-13 12:00N 35°31' E 139°53'7 1.5
2018-Jun-13 07:26N 35°30' E 140°02'3 6.9
2018-Jun-13 06:58N 35°31' E 139°58'612.8
2018-Jun-13 06:31N 35°31' E 139°51'4 7.7
2018-Jun-13 06:01N 35°31' E 139°46'0 0.0
2018-Jun-13 02:21N 35°31' E 139°46'0 0.0
2018-Jun-13 01:57N 35°31' E 139°46'0 0.0
2018-Jun-13 01:24N 35°31' E 139°46'0 0.0
2018-Jun-13 01:00N 35°31' E 139°46'0 0.0
2018-Jun-13 00:30N 35°31' E 139°46'0 0.0
2018-Jun-13 00:00N 35°31' E 139°46'2 4.5
2018-Jun-12 23:31N 35°30' E 139°44'3 6.5
2018-Jun-12 23:00N 35°27' E 139°43'3 5.5
2018-Jun-12 22:28N 35°24' E 139°44'0 0.0
2018-Jun-12 21:58N 35°24' E 139°44'0 0.0
2018-Jun-12 21:28N 35°24' E 139°44'0 0.0
2018-Jun-12 20:58N 35°24' E 139°44'0 0.0
2018-Jun-12 20:28N 35°24' E 139°44'0 0.0
2018-Jun-12 19:58N 35°24' E 139°44'0 0.0
2018-Jun-12 19:28N 35°24' E 139°44'0 0.0
2018-Jun-12 18:58N 35°24' E 139°44'0 0.0
2018-Jun-12 18:28N 35°24' E 139°44'0 0.0
2018-Jun-12 17:58N 35°24' E 139°44'0 0.1
2018-Jun-12 17:28N 35°24' E 139°44'0 0.0
2018-Jun-12 16:58N 35°24' E 139°44'0 0.0
2018-Jun-12 16:28N 35°24' E 139°44'0 0.0
2018-Jun-12 15:58N 35°24' E 139°44'0 0.0
2018-Jun-12 15:28N 35°24' E 139°44'0 0.0
2018-Jun-12 14:58N 35°24' E 139°44'0 0.1
2018-Jun-12 14:28N 35°24' E 139°44'0 0.0
2018-Jun-12 13:55N 35°24' E 139°44'0 0.0
2018-Jun-12 13:28N 35°24' E 139°44'0 0.0
2018-Jun-12 12:58N 35°24' E 139°44'0 0.0
2018-Jun-12 12:28N 35°24' E 139°44'0 0.0
2018-Jun-12 11:58N 35°24' E 139°44'0 0.0
2018-Jun-12 11:28N 35°24' E 139°44'0 0.0
2018-Jun-12 10:58N 35°24' E 139°44'0 0.0
2018-Jun-12 10:28N 35°24' E 139°44'0 0.0
2018-Jun-12 09:55N 35°24' E 139°44'0 0.0
2018-Jun-12 09:28N 35°24' E 139°44'0 0.0
2018-Jun-12 09:01N 35°24' E 139°44'0 0.2
2018-Jun-12 08:31N 35°24' E 139°44'0 0.0
2018-Jun-12 07:58N 35°24' E 139°44'0 0.1
2018-Jun-12 07:28N 35°24' E 139°44'0 0.0
2018-Jun-12 06:55N 35°24' E 139°44'0 0.0
2018-Jun-12 06:28N 35°24' E 139°44'0 0.0
2018-Jun-12 05:58N 35°24' E 139°44'3 7.5
2018-Jun-12 05:31N 35°26' E 139°47'611.9
2018-Jun-12 05:00N 35°30' E 139°53'611.1
2018-Jun-12 04:28N 35°29' E 140°00'0 0.1
2018-Jun-11 23:31N 35°29' E 140°01'0 2.4
2018-Jun-11 23:29N 35°29' E 140°01'2 1.1
2018-Jun-11 21:52N 35°30' E 139°59'4 0.3
2018-Jun-11 06:01N 35°30' E 139°54'112.7
2018-Jun-11 05:58N 35°30' E 139°53'612.0
2018-Jun-11 05:29N 35°26' E 139°48'612.6
2018-Jun-11 05:00N 35°23' E 139°41'2 3.1
2018-Jun-11 04:29N 35°24' E 139°40'0 0.0
2018-Jun-11 03:55N 35°24' E 139°40'0 0.0
2018-Jun-11 03:29N 35°24' E 139°40'0 0.0
2018-Jun-11 02:59N 35°24' E 139°40'0 0.0
2018-Jun-11 02:29N 35°24' E 139°40'0 0.0
2018-Jun-11 01:58N 35°24' E 139°40'0 0.0
2018-Jun-11 01:29N 35°24' E 139°40'0 0.0
2018-Jun-11 00:58N 35°24' E 139°40'0 0.0
2018-Jun-11 00:29N 35°24' E 139°40'0 0.3
2018-Jun-11 00:00N 35°24' E 139°40'2 3.3
2018-Jun-10 23:30N 35°23' E 139°41'2 4.3
2018-Jun-10 22:56N 35°22' E 139°44'0 0.0
2018-Jun-10 22:28N 35°22' E 139°44'0 0.0
2018-Jun-10 21:58N 35°22' E 139°44'0 0.0
2018-Jun-10 21:28N 35°22' E 139°44'0 0.0
2018-Jun-10 20:58N 35°22' E 139°44'0 0.0
2018-Jun-10 20:28N 35°22' E 139°44'0 0.0
2018-Jun-10 19:58N 35°22' E 139°44'0 0.0
2018-Jun-10 19:28N 35°22' E 139°44'0 0.1
2018-Jun-10 18:58N 35°22' E 139°44'0 0.0
2018-Jun-10 18:29N 35°22' E 139°44'0 0.0
2018-Jun-10 17:58N 35°22' E 139°44'0 0.0
2018-Jun-10 17:28N 35°22' E 139°44'0 0.0
2018-Jun-10 16:58N 35°22' E 139°44'0 0.0
2018-Jun-10 16:25N 35°22' E 139°44'0 0.1
2018-Jun-10 15:58N 35°22' E 139°44'0 0.0
2018-Jun-10 15:28N 35°22' E 139°44'0 0.0
2018-Jun-10 14:58N 35°22' E 139°44'0 0.0
2018-Jun-10 13:55N 35°22' E 139°44'0 0.0
2018-Jun-10 13:28N 35°22' E 139°44'0 0.1
2018-Jun-10 12:55N 35°22' E 139°44'0 0.0
2018-Jun-10 12:28N 35°22' E 139°44'0 0.0
2018-Jun-10 11:58N 35°22' E 139°44'0 0.0
2018-Jun-10 11:28N 35°22' E 139°44'0 0.0
2018-Jun-10 10:58N 35°22' E 139°44'0 0.0
2018-Jun-10 10:28N 35°22' E 139°44'0 0.0
2018-Jun-10 09:58N 35°22' E 139°44'0 0.0
2018-Jun-10 09:28N 35°22' E 139°44'0 0.0
2018-Jun-10 08:58N 35°22' E 139°44'0 0.0
2018-Jun-10 08:28N 35°22' E 139°44'0 0.1
2018-Jun-10 07:58N 35°22' E 139°44'0 0.7
2018-Jun-10 07:30N 35°22' E 139°44'510.5
2018-Jun-10 07:00N 35°17' E 139°46'611.6
2018-Jun-10 06:30N 35°11' E 139°46'24811.5
2018-Jun-09 08:51N 33°52' E 135°01'412.5
2018-Jun-09 08:30N 33°57' E 135°01'713.2
2018-Jun-09 08:00N 34°03' E 135°02'612.3
2018-Jun-09 07:30N 34°09' E 135°05'610.6
2018-Jun-09 06:58N 34°09' E 135°12'0 0.0
2018-Jun-09 02:13N 34°09' E 135°12'0 1.8
2018-Jun-09 02:00N 34°09' E 135°12'2 3.6
2018-Jun-09 01:30N 34°09' E 135°09'0 0.1
2018-Jun-09 00:58N 34°09' E 135°09'0 0.0
2018-Jun-09 00:30N 34°09' E 135°09'0 0.0
2018-Jun-09 00:00N 34°09' E 135°09'0 0.0
2018-Jun-08 23:30N 34°09' E 135°09'0 0.0
2018-Jun-08 23:00N 34°09' E 135°09'0 0.0
2018-Jun-08 22:31N 34°09' E 135°09'0 0.0
2018-Jun-08 21:51N 34°09' E 135°09'0 0.0
2018-Jun-08 21:27N 34°09' E 135°09'0 0.1
2018-Jun-08 20:54N 34°09' E 135°09'0 0.0
2018-Jun-08 20:30N 34°09' E 135°09'0 0.1
2018-Jun-08 20:00N 34°09' E 135°09'0 0.1
2018-Jun-08 19:25N 34°09' E 135°09'0 0.0
2018-Jun-08 19:01N 34°09' E 135°09'0 0.0
2018-Jun-08 18:31N 34°09' E 135°09'0 0.0
2018-Jun-08 17:51N 34°09' E 135°09'0 0.1
2018-Jun-08 17:27N 34°09' E 135°09'0 0.0
2018-Jun-08 17:00N 34°09' E 135°09'0 0.0
2018-Jun-08 16:30N 34°09' E 135°09'0 0.1
2018-Jun-08 15:57N 34°09' E 135°09'0 0.1
2018-Jun-08 15:30N 34°09' E 135°09'0 0.0
2018-Jun-08 15:00N 34°09' E 135°09'0 0.1
2018-Jun-08 14:30N 34°09' E 135°09'0 0.1
2018-Jun-08 14:00N 34°09' E 135°09'0 0.0
2018-Jun-08 13:24N 34°09' E 135°09'0 0.0
2018-Jun-08 13:01N 34°09' E 135°09'0 0.0
2018-Jun-08 12:30N 34°09' E 135°09'0 0.1
2018-Jun-08 11:57N 34°09' E 135°09'4 8.9
2018-Jun-08 11:31N 34°09' E 135°05'713.9
2018-Jun-08 11:00N 34°08' E 134°56'713.3
2018-Jun-08 10:28N 34°09' E 134°48'813.9
2018-Jun-08 09:55N 34°13' E 134°40'814.3
2018-Jun-08 09:23N 34°17' E 134°32'514.2
2018-Jun-08 09:01N 34°19' E 134°27'913.9
2018-Jun-08 08:23N 34°23' E 134°17'3 0.1
2018-Jun-06 07:35N 34°22' E 134°21'112.9
2018-Jun-06 07:30N 34°22' E 134°22'713.3
2018-Jun-06 07:00N 34°19' E 134°29'912.6
2018-Jun-06 06:16N 34°14' E 134°39'412.6
2018-Jun-06 05:57N 34°11' E 134°42'613.2
2018-Jun-06 05:29N 34°08' E 134°49'713.8
2018-Jun-06 05:00N 34°09' E 134°57'713.8
2018-Jun-06 04:30N 34°09' E 135°05'611.0
2018-Jun-06 04:00N 34°09' E 135°12'0 0.0
2018-Jun-05 23:56N 34°09' E 135°12'1 3.1
2018-Jun-05 23:29N 34°09' E 135°10'1 2.0
2018-Jun-05 22:55N 34°09' E 135°09'0 0.0
2018-Jun-05 22:28N 34°09' E 135°09'0 0.1
2018-Jun-05 21:58N 34°09' E 135°09'0 0.0
2018-Jun-05 21:28N 34°09' E 135°09'0 0.1
2018-Jun-05 20:58N 34°09' E 135°09'0 0.0
2018-Jun-05 20:25N 34°09' E 135°09'0 0.1
2018-Jun-05 19:58N 34°09' E 135°09'0 0.1
2018-Jun-05 19:19N 34°09' E 135°09'0 0.0
2018-Jun-05 18:58N 34°09' E 135°09'0 0.0
2018-Jun-05 18:25N 34°09' E 135°09'0 0.1
2018-Jun-05 17:55N 34°09' E 135°09'0 0.0
2018-Jun-05 17:28N 34°09' E 135°09'0 0.0
2018-Jun-05 16:58N 34°09' E 135°09'0 0.1
2018-Jun-05 16:19N 34°09' E 135°09'0 0.0
2018-Jun-05 15:43N 34°09' E 135°09'0 0.0
2018-Jun-05 15:28N 34°09' E 135°09'0 0.0
2018-Jun-05 14:55N 34°09' E 135°09'0 0.0
2018-Jun-05 14:19N 34°09' E 135°09'0 0.2
2018-Jun-05 13:58N 34°09' E 135°09'0 0.0
2018-Jun-05 13:28N 34°09' E 135°09'0 0.0
2018-Jun-05 12:55N 34°09' E 135°09'2 3.9
2018-Jun-05 12:30N 34°09' E 135°07'613.0
2018-Jun-05 12:00N 34°09' E 134°59'612.4
2018-Jun-05 11:30N 34°08' E 134°52'1111.8
2018-Jun-05 10:35N 34°13' E 134°40'113.6
2018-Jun-05 10:30N 34°14' E 134°39'612.3
2018-Jun-05 09:59N 34°18' E 134°33'612.8
2018-Jun-05 09:30N 34°19' E 134°26'7 0.3
2018-Jun-04 09:28N 34°26' E 134°23'613.4
2018-Jun-04 09:00N 34°29' E 134°30'613.0
2018-Jun-04 08:30N 34°31' E 134°37'712.8
2018-Jun-04 07:57N 34°33' E 134°45'612.5
2018-Jun-04 07:30N 34°35' E 134°52'611.9
2018-Jun-04 06:57N 34°38' E 134°59'511.4
2018-Jun-04 06:30N 34°35' E 135°05'713.1
2018-Jun-04 06:00N 34°29' E 135°03'714.2
2018-Jun-04 05:31N 34°22' E 135°00'612.8
2018-Jun-04 05:00N 34°16' E 134°60'713.3
2018-Jun-04 04:30N 34°11' E 135°06'4 6.9
2018-Jun-04 03:58N 34°09' E 135°09'1 3.2
2018-Jun-04 03:30N 34°09' E 135°11'1 0.2
2018-Jun-04 00:21N 34°09' E 135°12'1 3.1
2018-Jun-04 00:00N 34°09' E 135°11'2 3.0
2018-Jun-03 23:28N 34°09' E 135°09'0 0.0
2018-Jun-03 22:37N 34°09' E 135°09'0 0.0
2018-Jun-03 22:25N 34°09' E 135°09'0 0.0
2018-Jun-03 21:58N 34°09' E 135°09'0 0.0
2018-Jun-03 21:28N 34°09' E 135°09'0 0.0
2018-Jun-03 20:55N 34°09' E 135°09'0 0.1
2018-Jun-03 20:28N 34°09' E 135°09'0 0.0
2018-Jun-03 19:58N 34°09' E 135°09'0 0.0
2018-Jun-03 19:13N 34°09' E 135°09'0 0.0
2018-Jun-03 18:58N 34°09' E 135°09'0 0.0
2018-Jun-03 18:28N 34°09' E 135°09'0 0.0
2018-Jun-03 17:58N 34°09' E 135°09'0 0.0
2018-Jun-03 17:25N 34°09' E 135°09'0 0.0
2018-Jun-03 16:55N 34°09' E 135°09'0 0.0
2018-Jun-03 16:22N 34°09' E 135°09'0 0.1
2018-Jun-03 15:58N 34°09' E 135°09'0 0.1
2018-Jun-03 15:22N 34°09' E 135°09'0 0.0
2018-Jun-03 14:58N 34°09' E 135°09'  
Track history (hours):
 
Tides and Currents Weather Stations Pressure Air Temp Water Temp Dewpoint Dewpoint Depression Visibility Wind Speed Wind Dir Waves Ship Positions

Kirishima Maru No.17

Last reported at 2018-Jun-13 14:34 UTC. Time now 2018-Jun-19 18:00 UTC.
Position N 35°03' E 139°39'.

Length 91 m; draft 5.6 m.

Type: Tanker. MMSI: 431003736.

Date/timePositionNaut miles runAvg speedWind from/ knotsBaromVisibWave heightAir tempDewpointWater temp
2018-Jun-13 14:34N 35°03' E 139°39'213.6
2018-Jun-13 14:27N 35°04' E 139°41'614.0
2018-Jun-13 14:00N 35°10' E 139°45'713.1
2018-Jun-13 13:29N 35°16' E 139°46'612.9
2018-Jun-13 13:00N 35°22' E 139°42'612.3
2018-Jun-13 12:30N 35°27' E 139°47'713.2
2018-Jun-13 12:00N 35°31' E 139°53'7 1.5
2018-Jun-13 07:26N 35°30' E 140°02'3 6.9
2018-Jun-13 06:58N 35°31' E 139°58'612.8
2018-Jun-13 06:31N 35°31' E 139°51'4 7.7
2018-Jun-13 06:01N 35°31' E 139°46'0 0.0
2018-Jun-13 02:21N 35°31' E 139°46'0 0.0
2018-Jun-13 01:57N 35°31' E 139°46'0 0.0
2018-Jun-13 01:24N 35°31' E 139°46'0 0.0
2018-Jun-13 01:00N 35°31' E 139°46'0 0.0
2018-Jun-13 00:30N 35°31' E 139°46'0 0.0
2018-Jun-13 00:00N 35°31' E 139°46'2 4.5
2018-Jun-12 23:31N 35°30' E 139°44'3 6.5
2018-Jun-12 23:00N 35°27' E 139°43'3 5.5
2018-Jun-12 22:28N 35°24' E 139°44'0 0.0
2018-Jun-12 21:58N 35°24' E 139°44'0 0.0
2018-Jun-12 21:28N 35°24' E 139°44'0 0.0
2018-Jun-12 20:58N 35°24' E 139°44'0 0.0
2018-Jun-12 20:28N 35°24' E 139°44'0 0.0
2018-Jun-12 19:58N 35°24' E 139°44'0 0.0
2018-Jun-12 19:28N 35°24' E 139°44'0 0.0
2018-Jun-12 18:58N 35°24' E 139°44'0 0.0
2018-Jun-12 18:28N 35°24' E 139°44'0 0.0
2018-Jun-12 17:58N 35°24' E 139°44'0 0.1
2018-Jun-12 17:28N 35°24' E 139°44'0 0.0
2018-Jun-12 16:58N 35°24' E 139°44'0 0.0
2018-Jun-12 16:28N 35°24' E 139°44'0 0.0
2018-Jun-12 15:58N 35°24' E 139°44'0 0.0
2018-Jun-12 15:28N 35°24' E 139°44'0 0.0
2018-Jun-12 14:58N 35°24' E 139°44'0 0.1
2018-Jun-12 14:28N 35°24' E 139°44'0 0.0
2018-Jun-12 13:55N 35°24' E 139°44'0 0.0
2018-Jun-12 13:28N 35°24' E 139°44'0 0.0
2018-Jun-12 12:58N 35°24' E 139°44'0 0.0
2018-Jun-12 12:28N 35°24' E 139°44'0 0.0
2018-Jun-12 11:58N 35°24' E 139°44'0 0.0
2018-Jun-12 11:28N 35°24' E 139°44'0 0.0
2018-Jun-12 10:58N 35°24' E 139°44'0 0.0
2018-Jun-12 10:28N 35°24' E 139°44'0 0.0
2018-Jun-12 09:55N 35°24' E 139°44'0 0.0
2018-Jun-12 09:28N 35°24' E 139°44'0 0.0
2018-Jun-12 09:01N 35°24' E 139°44'0 0.2
2018-Jun-12 08:31N 35°24' E 139°44'0 0.0
2018-Jun-12 07:58N 35°24' E 139°44'0 0.1
2018-Jun-12 07:28N 35°24' E 139°44'0 0.0
2018-Jun-12 06:55N 35°24' E 139°44'0 0.0
2018-Jun-12 06:28N 35°24' E 139°44'0 0.0
2018-Jun-12 05:58N 35°24' E 139°44'3 7.5
2018-Jun-12 05:31N 35°26' E 139°47'611.9
2018-Jun-12 05:00N 35°30' E 139°53'611.1
2018-Jun-12 04:28N 35°29' E 140°00'0 0.1
2018-Jun-11 23:31N 35°29' E 140°01'0 2.4
2018-Jun-11 23:29N 35°29' E 140°01'2 1.1
2018-Jun-11 21:52N 35°30' E 139°59'4 0.3
2018-Jun-11 06:01N 35°30' E 139°54'112.7
2018-Jun-11 05:58N 35°30' E 139°53'612.0
2018-Jun-11 05:29N 35°26' E 139°48'612.6
2018-Jun-11 05:00N 35°23' E 139°41'2 3.1
2018-Jun-11 04:29N 35°24' E 139°40'0 0.0
2018-Jun-11 03:55N 35°24' E 139°40'0 0.0
2018-Jun-11 03:29N 35°24' E 139°40'0 0.0
2018-Jun-11 02:59N 35°24' E 139°40'0 0.0
2018-Jun-11 02:29N 35°24' E 139°40'0 0.0
2018-Jun-11 01:58N 35°24' E 139°40'0 0.0
2018-Jun-11 01:29N 35°24' E 139°40'0 0.0
2018-Jun-11 00:58N 35°24' E 139°40'0 0.0
2018-Jun-11 00:29N 35°24' E 139°40'0 0.3
2018-Jun-11 00:00N 35°24' E 139°40'2 3.3
2018-Jun-10 23:30N 35°23' E 139°41'2 4.3
2018-Jun-10 22:56N 35°22' E 139°44'0 0.0
2018-Jun-10 22:28N 35°22' E 139°44'0 0.0
2018-Jun-10 21:58N 35°22' E 139°44'0 0.0
2018-Jun-10 21:28N 35°22' E 139°44'0 0.0
2018-Jun-10 20:58N 35°22' E 139°44'0 0.0
2018-Jun-10 20:28N 35°22' E 139°44'0 0.0
2018-Jun-10 19:58N 35°22' E 139°44'0 0.0
2018-Jun-10 19:28N 35°22' E 139°44'0 0.1
2018-Jun-10 18:58N 35°22' E 139°44'0 0.0
2018-Jun-10 18:29N 35°22' E 139°44'0 0.0
2018-Jun-10 17:58N 35°22' E 139°44'0 0.0
2018-Jun-10 17:28N 35°22' E 139°44'0 0.0
2018-Jun-10 16:58N 35°22' E 139°44'0 0.0
2018-Jun-10 16:25N 35°22' E 139°44'0 0.1
2018-Jun-10 15:58N 35°22' E 139°44'0 0.0
2018-Jun-10 15:28N 35°22' E 139°44'0 0.0
2018-Jun-10 14:58N 35°22' E 139°44'0 0.0
2018-Jun-10 13:55N 35°22' E 139°44'0 0.0
2018-Jun-10 13:28N 35°22' E 139°44'0 0.1
2018-Jun-10 12:55N 35°22' E 139°44'0 0.0
2018-Jun-10 12:28N 35°22' E 139°44'0 0.0
2018-Jun-10 11:58N 35°22' E 139°44'0 0.0
2018-Jun-10 11:28N 35°22' E 139°44'0 0.0
2018-Jun-10 10:58N 35°22' E 139°44'0 0.0
2018-Jun-10 10:28N 35°22' E 139°44'0 0.0
2018-Jun-10 09:58N 35°22' E 139°44'0 0.0
2018-Jun-10 09:28N 35°22' E 139°44'0 0.0
2018-Jun-10 08:58N 35°22' E 139°44'0 0.0
2018-Jun-10 08:28N 35°22' E 139°44'0 0.1
2018-Jun-10 07:58N 35°22' E 139°44'0 0.7
2018-Jun-10 07:30N 35°22' E 139°44'510.5
2018-Jun-10 07:00N 35°17' E 139°46'611.6
2018-Jun-10 06:30N 35°11' E 139°46'24811.5
2018-Jun-09 08:51N 33°52' E 135°01'412.5
2018-Jun-09 08:30N 33°57' E 135°01'713.2
2018-Jun-09 08:00N 34°03' E 135°02'612.3
2018-Jun-09 07:30N 34°09' E 135°05'610.6
2018-Jun-09 06:58N 34°09' E 135°12'0 0.0
2018-Jun-09 02:13N 34°09' E 135°12'0 1.8
2018-Jun-09 02:00N 34°09' E 135°12'2 3.6
2018-Jun-09 01:30N 34°09' E 135°09'0 0.1
2018-Jun-09 00:58N 34°09' E 135°09'0 0.0
2018-Jun-09 00:30N 34°09' E 135°09'0 0.0
2018-Jun-09 00:00N 34°09' E 135°09'0 0.0
2018-Jun-08 23:30N 34°09' E 135°09'0 0.0
2018-Jun-08 23:00N 34°09' E 135°09'0 0.0
2018-Jun-08 22:31N 34°09' E 135°09'0 0.0
2018-Jun-08 21:51N 34°09' E 135°09'0 0.0
2018-Jun-08 21:27N 34°09' E 135°09'0 0.1
2018-Jun-08 20:54N 34°09' E 135°09'0 0.0
2018-Jun-08 20:30N 34°09' E 135°09'0 0.1
2018-Jun-08 20:00N 34°09' E 135°09'0 0.1
2018-Jun-08 19:25N 34°09' E 135°09'0 0.0
2018-Jun-08 19:01N 34°09' E 135°09'0 0.0
2018-Jun-08 18:31N 34°09' E 135°09'0 0.0
2018-Jun-08 17:51N 34°09' E 135°09'0 0.1
2018-Jun-08 17:27N 34°09' E 135°09'0 0.0
2018-Jun-08 17:00N 34°09' E 135°09'0 0.0
2018-Jun-08 16:30N 34°09' E 135°09'0 0.1
2018-Jun-08 15:57N 34°09' E 135°09'0 0.1
2018-Jun-08 15:30N 34°09' E 135°09'0 0.0
2018-Jun-08 15:00N 34°09' E 135°09'0 0.1
2018-Jun-08 14:30N 34°09' E 135°09'0 0.1
2018-Jun-08 14:00N 34°09' E 135°09'0 0.0
2018-Jun-08 13:24N 34°09' E 135°09'0 0.0
2018-Jun-08 13:01N 34°09' E 135°09'0 0.0
2018-Jun-08 12:30N 34°09' E 135°09'0 0.1
2018-Jun-08 11:57N 34°09' E 135°09'4 8.9
2018-Jun-08 11:31N 34°09' E 135°05'713.9
2018-Jun-08 11:00N 34°08' E 134°56'713.3
2018-Jun-08 10:28N 34°09' E 134°48'813.9
2018-Jun-08 09:55N 34°13' E 134°40'814.3
2018-Jun-08 09:23N 34°17' E 134°32'514.2
2018-Jun-08 09:01N 34°19' E 134°27'913.9
2018-Jun-08 08:23N 34°23' E 134°17'3 0.1
2018-Jun-06 07:35N 34°22' E 134°21'112.9
2018-Jun-06 07:30N 34°22' E 134°22'713.3
2018-Jun-06 07:00N 34°19' E 134°29'912.6
2018-Jun-06 06:16N 34°14' E 134°39'412.6
2018-Jun-06 05:57N 34°11' E 134°42'613.2
2018-Jun-06 05:29N 34°08' E 134°49'713.8
2018-Jun-06 05:00N 34°09' E 134°57'713.8
2018-Jun-06 04:30N 34°09' E 135°05'611.0
2018-Jun-06 04:00N 34°09' E 135°12'0 0.0
2018-Jun-05 23:56N 34°09' E 135°12'1 3.1
2018-Jun-05 23:29N 34°09' E 135°10'1 2.0
2018-Jun-05 22:55N 34°09' E 135°09'0 0.0
2018-Jun-05 22:28N 34°09' E 135°09'0 0.1
2018-Jun-05 21:58N 34°09' E 135°09'0 0.0
2018-Jun-05 21:28N 34°09' E 135°09'0 0.1
2018-Jun-05 20:58N 34°09' E 135°09'0 0.0
2018-Jun-05 20:25N 34°09' E 135°09'0 0.1
2018-Jun-05 19:58N 34°09' E 135°09'0 0.1
2018-Jun-05 19:19N 34°09' E 135°09'0 0.0
2018-Jun-05 18:58N 34°09' E 135°09'0 0.0
2018-Jun-05 18:25N 34°09' E 135°09'0 0.1
2018-Jun-05 17:55N 34°09' E 135°09'0 0.0
2018-Jun-05 17:28N 34°09' E 135°09'0 0.0
2018-Jun-05 16:58N 34°09' E 135°09'0 0.1
2018-Jun-05 16:19N 34°09' E 135°09'0 0.0
2018-Jun-05 15:43N 34°09' E 135°09'0 0.0
2018-Jun-05 15:28N 34°09' E 135°09'0 0.0
2018-Jun-05 14:55N 34°09' E 135°09'0 0.0
2018-Jun-05 14:19N 34°09' E 135°09'0 0.2
2018-Jun-05 13:58N 34°09' E 135°09'0 0.0
2018-Jun-05 13:28N 34°09' E 135°09'0 0.0
2018-Jun-05 12:55N 34°09' E 135°09'2 3.9
2018-Jun-05 12:30N 34°09' E 135°07'613.0
2018-Jun-05 12:00N 34°09' E 134°59'612.4
2018-Jun-05 11:30N 34°08' E 134°52'1111.8
2018-Jun-05 10:35N 34°13' E 134°40'113.6
2018-Jun-05 10:30N 34°14' E 134°39'612.3
2018-Jun-05 09:59N 34°18' E 134°33'612.8
2018-Jun-05 09:30N 34°19' E 134°26'7 0.3
2018-Jun-04 09:28N 34°26' E 134°23'613.4
2018-Jun-04 09:00N 34°29' E 134°30'613.0
2018-Jun-04 08:30N 34°31' E 134°37'712.8
2018-Jun-04 07:57N 34°33' E 134°45'612.5
2018-Jun-04 07:30N 34°35' E 134°52'611.9
2018-Jun-04 06:57N 34°38' E 134°59'511.4
2018-Jun-04 06:30N 34°35' E 135°05'713.1
2018-Jun-04 06:00N 34°29' E 135°03'714.2
2018-Jun-04 05:31N 34°22' E 135°00'612.8
2018-Jun-04 05:00N 34°16' E 134°60'713.3
2018-Jun-04 04:30N 34°11' E 135°06'4 6.9
2018-Jun-04 03:58N 34°09' E 135°09'1 3.2
2018-Jun-04 03:30N 34°09' E 135°11'1 0.2
2018-Jun-04 00:21N 34°09' E 135°12'1 3.1
2018-Jun-04 00:00N 34°09' E 135°11'2 3.0
2018-Jun-03 23:28N 34°09' E 135°09'0 0.0
2018-Jun-03 22:37N 34°09' E 135°09'0 0.0
2018-Jun-03 22:25N 34°09' E 135°09'0 0.0
2018-Jun-03 21:58N 34°09' E 135°09'0 0.0
2018-Jun-03 21:28N 34°09' E 135°09'0 0.0
2018-Jun-03 20:55N 34°09' E 135°09'0 0.1
2018-Jun-03 20:28N 34°09' E 135°09'0 0.0
2018-Jun-03 19:58N 34°09' E 135°09'0 0.0
2018-Jun-03 19:13N 34°09' E 135°09'0 0.0
2018-Jun-03 18:58N 34°09' E 135°09'0 0.0
2018-Jun-03 18:28N 34°09' E 135°09'0 0.0
2018-Jun-03 17:58N 34°09' E 135°09'0 0.0
2018-Jun-03 17:25N 34°09' E 135°09'0 0.0
2018-Jun-03 16:55N 34°09' E 135°09'0 0.0
2018-Jun-03 16:22N 34°09' E 135°09'0 0.1
2018-Jun-03 15:58N 34°09' E 135°09'0 0.1
2018-Jun-03 15:22N 34°09' E 135°09'0 0.0
2018-Jun-03 14:58N 34°09' E 135°09'  

Dump ship's entire track history